createdAt,value
2023-05-11T00:02:21.553Z,2.50
2023-05-11T00:05:24.452Z,2.40
2023-05-11T00:08:27.266Z,2.40
2023-05-11T00:11:30.057Z,2.70
2023-05-11T00:14:32.860Z,2.60
2023-05-11T00:17:35.805Z,2.60
2023-05-11T00:20:38.918Z,2.70
2023-05-11T00:23:41.810Z,2.30
2023-05-11T00:26:44.738Z,2.70
2023-05-11T00:29:47.830Z,2.70
2023-05-11T00:32:52.222Z,2.90
2023-05-11T00:35:55.226Z,2.40
2023-05-11T00:38:58.076Z,2.60
2023-05-11T00:42:00.936Z,3.00
2023-05-11T00:45:04.155Z,2.70
2023-05-11T00:48:07.742Z,2.20
2023-05-11T00:51:10.816Z,3.10
2023-05-11T00:54:15.892Z,3.30
2023-05-11T00:57:18.856Z,2.80
2023-05-11T01:00:22.024Z,3.40
2023-05-11T01:03:24.986Z,3.70
2023-05-11T01:06:46.949Z,4.50
2023-05-11T01:10:07.167Z,4.40
2023-05-11T01:13:26.952Z,5.90
2023-05-11T01:16:35.172Z,3.80
2023-05-11T01:19:56.828Z,5.00
2023-05-11T01:23:43.086Z,5.10
2023-05-11T01:27:04.044Z,4.30
2023-05-11T01:30:28.176Z,3.20
2023-05-11T01:33:37.433Z,3.20
2023-05-11T01:36:48.595Z,2.60
2023-05-11T01:40:01.630Z,2.60
2023-05-11T01:43:09.725Z,2.50
2023-05-11T01:46:14.335Z,2.80
2023-05-11T01:49:18.155Z,3.10
2023-05-11T01:52:25.077Z,2.90
2023-05-11T01:55:31.400Z,2.70
2023-05-11T01:58:37.401Z,2.50
2023-05-11T02:01:41.366Z,3.00
2023-05-11T02:04:45.722Z,2.50
2023-05-11T02:07:53.147Z,2.40
2023-05-11T02:10:57.829Z,2.30
2023-05-11T02:14:01.983Z,2.10
2023-05-11T02:17:06.387Z,2.10
2023-05-11T02:20:11.279Z,2.90
2023-05-11T02:23:15.631Z,2.30
2023-05-11T02:26:18.620Z,2.20
2023-05-11T02:29:21.525Z,2.20
2023-05-11T02:32:25.836Z,2.80
2023-05-11T02:35:32.756Z,3.10
2023-05-11T02:38:37.222Z,1.90
2023-05-11T02:41:43.797Z,2.20
2023-05-11T02:44:59.077Z,1.90
2023-05-11T02:48:19.860Z,2.10
2023-05-11T02:51:26.623Z,2.20
2023-05-11T02:54:31.017Z,2.40
2023-05-11T02:57:34.085Z,2.50
2023-05-11T03:00:38.580Z,2.70
2023-05-11T03:03:41.573Z,2.70
2023-05-11T03:06:44.458Z,2.10
2023-05-11T03:09:47.330Z,3.10
2023-05-11T03:12:50.659Z,3.10
2023-05-11T03:15:54.701Z,3.70
2023-05-11T03:18:59.590Z,3.50
2023-05-11T03:22:04.234Z,3.70
2023-05-11T03:25:08.889Z,3.40
2023-05-11T03:28:13.806Z,3.10
2023-05-11T03:31:16.652Z,2.90
2023-05-11T03:34:19.501Z,2.70
2023-05-11T03:37:22.887Z,2.50
2023-05-11T03:40:28.601Z,2.90
2023-05-11T03:43:34.863Z,2.80
2023-05-11T03:46:40.316Z,3.00
2023-05-11T03:49:44.251Z,2.70
2023-05-11T03:52:48.266Z,2.90
2023-05-11T03:55:52.942Z,2.70
2023-05-11T03:58:56.108Z,2.20
2023-05-11T04:01:59.427Z,2.80
2023-05-11T04:05:08.393Z,2.60
2023-05-11T04:08:12.519Z,2.70
2023-05-11T04:11:15.349Z,3.10
2023-05-11T04:14:18.529Z,3.00
2023-05-11T04:17:21.338Z,3.30
2023-05-11T04:20:24.189Z,3.20
2023-05-11T04:23:27.284Z,2.90
2023-05-11T04:26:30.241Z,2.00
2023-05-11T04:29:33.062Z,2.20
2023-05-11T04:32:36.056Z,2.50
2023-05-11T04:35:42.124Z,2.10
2023-05-11T04:38:44.919Z,2.80
2023-05-11T04:41:47.804Z,3.70
2023-05-11T04:44:53.627Z,2.80
2023-05-11T04:47:56.522Z,2.50
2023-05-11T04:50:59.391Z,2.50
2023-05-11T04:54:02.541Z,2.20
2023-05-11T04:57:05.661Z,2.20
2023-05-11T05:00:09.473Z,2.10
2023-05-11T05:03:12.318Z,2.40
2023-05-11T05:06:15.237Z,2.00
2023-05-11T05:09:18.099Z,2.90
2023-05-11T05:12:21.465Z,2.30
2023-05-11T05:15:24.817Z,2.30
2023-05-11T05:18:27.661Z,2.80
2023-05-11T05:21:30.619Z,2.50
2023-05-11T05:24:33.540Z,2.30
2023-05-11T05:27:36.536Z,2.30
2023-05-11T05:30:39.448Z,2.00
2023-05-11T05:33:42.751Z,2.30
2023-05-11T05:36:45.842Z,2.40
2023-05-11T05:39:48.825Z,2.60
2023-05-11T05:42:51.697Z,2.40
2023-05-11T05:45:54.680Z,2.30
2023-05-11T05:48:57.689Z,2.10
2023-05-11T05:52:00.612Z,2.30
2023-05-11T05:55:03.565Z,2.40
2023-05-11T05:58:06.419Z,2.40
2023-05-11T06:01:09.380Z,2.30
2023-05-11T06:04:13.320Z,2.40
2023-05-11T06:07:16.371Z,2.40
2023-05-11T06:10:19.626Z,2.20
2023-05-11T06:13:22.694Z,2.30
2023-05-11T06:16:27.064Z,3.50
2023-05-11T06:19:29.998Z,2.10
2023-05-11T06:22:32.785Z,1.80
2023-05-11T06:25:36.010Z,1.50
2023-05-11T06:28:38.920Z,1.50
2023-05-11T06:31:41.759Z,1.50
2023-05-11T06:34:44.613Z,1.90
2023-05-11T06:37:47.497Z,1.30
2023-05-11T06:40:53.802Z,1.60
2023-05-11T06:43:56.769Z,1.60
2023-05-11T06:47:01.187Z,1.30
2023-05-11T06:50:04.342Z,1.50
2023-05-11T06:53:07.820Z,1.40
2023-05-11T06:56:10.785Z,1.30
2023-05-11T06:59:13.751Z,1.30
2023-05-11T07:02:16.559Z,1.80
2023-05-11T07:05:19.557Z,2.00
2023-05-11T07:08:22.621Z,1.70
2023-05-11T07:11:26.089Z,1.80
2023-05-11T07:14:28.870Z,2.60
2023-05-11T07:17:31.971Z,3.20
2023-05-11T07:20:37.249Z,2.30
2023-05-11T07:26:43.026Z,2.30
2023-05-11T07:29:45.819Z,2.00
2023-05-11T07:32:48.882Z,1.50
2023-05-11T07:35:52.252Z,1.20
2023-05-11T07:38:55.422Z,1.70
2023-05-11T07:41:58.249Z,2.00
2023-05-11T07:45:01.104Z,2.00
2023-05-11T07:48:04.086Z,1.90
2023-05-11T07:51:07.811Z,1.80
2023-05-11T07:54:10.594Z,1.80
2023-05-11T07:57:14.070Z,1.90
2023-05-11T08:00:17.493Z,1.90
2023-05-11T08:03:21.650Z,2.30
2023-05-11T08:06:24.634Z,1.80
2023-05-11T08:09:28.747Z,1.60
2023-05-11T08:12:31.877Z,2.20
2023-05-11T08:15:34.825Z,2.20
2023-05-11T08:18:37.921Z,2.20
2023-05-11T08:21:40.919Z,2.00
2023-05-11T08:24:43.822Z,2.30
2023-05-11T08:27:46.913Z,2.00
2023-05-11T08:30:57.688Z,1.90
2023-05-11T08:34:00.719Z,1.70
2023-05-11T08:37:04.507Z,1.90
2023-05-11T08:40:08.484Z,1.50
2023-05-11T08:43:12.042Z,1.80
2023-05-11T08:46:21.101Z,1.80
2023-05-11T08:49:24.455Z,1.60
2023-05-11T08:52:28.589Z,1.70
2023-05-11T08:55:33.415Z,1.70
2023-05-11T08:58:39.566Z,1.60
2023-05-11T09:01:42.737Z,1.90
2023-05-11T09:04:48.568Z,1.70
2023-05-11T09:07:56.536Z,2.50
2023-05-11T09:11:00.073Z,2.30
2023-05-11T09:14:03.563Z,1.60
2023-05-11T09:17:06.633Z,2.30
2023-05-11T09:20:10.079Z,2.20
2023-05-11T09:23:17.580Z,2.10
2023-05-11T09:26:21.704Z,2.10
2023-05-11T09:32:47.761Z,2.40
2023-05-11T09:35:50.751Z,2.70
2023-05-11T09:38:57.272Z,2.10
2023-05-11T09:42:17.560Z,2.50
2023-05-11T09:45:37.130Z,2.50
2023-05-11T09:48:40.337Z,2.20
2023-05-11T09:51:43.463Z,2.20
2023-05-11T09:54:48.630Z,2.20
2023-05-11T09:57:57.321Z,2.50
2023-05-11T10:01:00.389Z,2.50
2023-05-11T10:04:17.854Z,2.50
2023-05-11T10:07:30.447Z,2.30
2023-05-11T10:10:34.700Z,2.50
2023-05-11T10:13:38.110Z,2.50
2023-05-11T10:16:44.534Z,2.40
2023-05-11T10:19:51.874Z,2.60
2023-05-11T10:22:56.309Z,2.60
2023-05-11T10:26:00.197Z,2.40
2023-05-11T10:29:03.352Z,2.30
2023-05-11T10:32:08.144Z,2.40
2023-05-11T10:35:11.188Z,2.00
2023-05-11T10:38:15.238Z,2.20
2023-05-11T10:41:55.815Z,2.00
2023-05-11T10:45:08.324Z,2.20
2023-05-11T10:48:42.226Z,2.40
2023-05-11T10:52:08.300Z,2.00
2023-05-11T10:55:20.230Z,2.00
2023-05-11T10:58:58.629Z,1.90
2023-05-11T11:02:04.149Z,2.30
2023-05-11T11:05:10.839Z,1.80
2023-05-11T11:08:14.216Z,1.90
2023-05-11T11:11:36.511Z,2.00
2023-05-11T11:15:00.249Z,2.40
2023-05-11T11:18:26.139Z,2.00
2023-05-11T11:21:42.827Z,2.20
2023-05-11T11:24:46.902Z,2.20
2023-05-11T11:27:49.663Z,2.30
2023-05-11T11:31:26.637Z,2.40
2023-05-11T11:34:34.221Z,2.40
2023-05-11T11:38:00.375Z,2.30
2023-05-11T11:41:03.574Z,2.70
2023-05-11T11:44:20.858Z,2.80
2023-05-11T11:47:26.246Z,2.70
2023-05-11T11:50:29.395Z,2.50
2023-05-11T11:54:00.715Z,2.40
2023-05-11T11:57:04.324Z,2.90
2023-05-11T12:00:11.538Z,2.70
2023-05-11T12:03:23.325Z,3.00
2023-05-11T12:06:41.323Z,3.10
2023-05-11T12:09:46.443Z,2.90
2023-05-11T12:12:51.197Z,2.70
2023-05-11T12:16:13.874Z,3.10
2023-05-11T12:19:24.611Z,2.90
2023-05-11T12:22:27.435Z,3.00
2023-05-11T12:25:30.317Z,2.80
2023-05-11T12:28:33.941Z,2.60
2023-05-11T12:31:41.166Z,2.60
2023-05-11T12:34:57.607Z,3.00
2023-05-11T12:38:02.439Z,2.60
2023-05-11T12:41:06.088Z,2.60
2023-05-11T12:44:09.964Z,2.30
2023-05-11T12:47:13.189Z,2.80
2023-05-11T12:50:17.380Z,2.50
2023-05-11T12:53:20.732Z,2.40
2023-05-11T12:56:23.821Z,2.30
2023-05-11T12:59:32.773Z,2.30
2023-05-11T13:02:35.701Z,2.10
2023-05-11T13:05:40.011Z,2.30
2023-05-11T13:08:47.133Z,2.00
2023-05-11T13:11:50.076Z,1.90
2023-05-11T13:15:13.308Z,2.00
2023-05-11T13:18:17.449Z,2.00
2023-05-11T13:21:20.338Z,1.70
2023-05-11T13:24:24.770Z,1.90
2023-05-11T13:27:27.801Z,2.30
2023-05-11T13:30:32.760Z,1.90
2023-05-11T13:33:36.970Z,2.20
2023-05-11T13:36:40.304Z,1.80
2023-05-11T13:39:43.142Z,1.60
2023-05-11T13:42:46.489Z,1.90
2023-05-11T13:45:49.910Z,1.80
2023-05-11T13:48:54.913Z,1.70
2023-05-11T13:51:57.858Z,1.80
2023-05-11T13:55:01.087Z,1.80
2023-05-11T13:58:03.997Z,1.40
2023-05-11T14:01:08.525Z,1.60
2023-05-11T14:04:11.896Z,2.20
2023-05-11T14:07:15.655Z,2.10
2023-05-11T14:10:19.561Z,2.40
2023-05-11T14:13:22.458Z,1.90
2023-05-11T14:16:25.384Z,1.80
2023-05-11T14:19:28.330Z,2.00
2023-05-11T14:22:31.276Z,1.70
2023-05-11T14:25:34.144Z,1.70
2023-05-11T14:28:36.958Z,1.50
2023-05-11T14:31:39.897Z,1.70
2023-05-11T14:34:42.980Z,1.50
2023-05-11T14:37:46.011Z,1.60
2023-05-11T14:40:51.069Z,2.00
2023-05-11T14:43:55.506Z,1.60
2023-05-11T14:46:58.791Z,1.70
2023-05-11T14:50:02.345Z,1.90
2023-05-11T14:53:05.651Z,1.70
2023-05-11T14:56:08.892Z,1.50
2023-05-11T14:59:11.866Z,1.40
2023-05-11T15:02:14.849Z,1.50
2023-05-11T15:05:18.098Z,1.70
2023-05-11T15:08:29.539Z,1.70
2023-05-11T15:11:33.651Z,1.60
2023-05-11T15:14:36.498Z,1.90
2023-05-11T15:17:40.078Z,1.70
2023-05-11T15:20:44.016Z,1.50
2023-05-11T15:23:47.623Z,2.10
2023-05-11T15:26:51.807Z,1.70
2023-05-11T15:29:54.646Z,1.80
2023-05-11T15:33:00.701Z,1.80
2023-05-11T15:36:03.907Z,1.80
2023-05-11T15:39:06.866Z,1.90
2023-05-11T15:42:09.775Z,2.00
2023-05-11T15:45:12.801Z,2.40
2023-05-11T15:48:16.003Z,2.10
2023-05-11T15:51:19.462Z,2.00
2023-05-11T15:54:22.475Z,1.80
2023-05-11T15:57:25.398Z,1.90
2023-05-11T16:00:28.582Z,1.80
2023-05-11T16:03:32.511Z,2.40
2023-05-11T16:06:35.610Z,1.90
2023-05-11T16:09:38.595Z,2.10
2023-05-11T16:12:41.444Z,2.10
2023-05-11T16:15:44.304Z,1.90
2023-05-11T16:18:47.610Z,2.20
2023-05-11T16:21:50.520Z,1.80
2023-05-11T16:24:53.348Z,1.70
2023-05-11T16:27:56.495Z,1.70
2023-05-11T16:31:00.012Z,1.90
2023-05-11T16:34:03.413Z,1.90
2023-05-11T16:37:06.482Z,2.50
2023-05-11T16:40:09.841Z,2.50
2023-05-11T16:43:12.755Z,2.50
2023-05-11T16:46:15.580Z,2.00
2023-05-11T16:49:18.409Z,1.70
2023-05-11T16:52:21.252Z,2.30
2023-05-11T16:55:24.065Z,2.10
2023-05-11T16:58:27.142Z,2.10
2023-05-11T17:01:30.191Z,2.20
2023-05-11T17:04:33.130Z,2.00
2023-05-11T17:07:36.085Z,1.90
2023-05-11T17:10:38.965Z,1.90
2023-05-11T17:13:41.820Z,1.80
2023-05-11T17:16:44.942Z,2.20
2023-05-11T17:19:47.974Z,2.30
2023-05-11T17:22:50.941Z,2.20
2023-05-11T17:25:54.442Z,1.60
2023-05-11T17:28:57.369Z,2.00
2023-05-11T17:32:00.457Z,2.20
2023-05-11T17:35:07.451Z,2.40
2023-05-11T17:38:10.548Z,2.20
2023-05-11T17:41:14.067Z,2.30
2023-05-11T17:44:17.397Z,2.80
2023-05-11T17:47:20.460Z,3.00
2023-05-11T17:50:23.739Z,3.30
2023-05-11T17:53:27.455Z,2.90
2023-05-11T17:56:31.549Z,3.20
2023-05-11T17:59:34.799Z,3.40
2023-05-11T18:02:37.631Z,3.30
2023-05-11T18:05:48.563Z,2.50
2023-05-11T18:11:55.108Z,3.60
2023-05-11T18:14:58.098Z,3.50
2023-05-11T18:18:01.617Z,2.80
2023-05-11T18:21:05.901Z,3.30
2023-05-11T18:24:09.723Z,3.60
2023-05-11T18:27:12.798Z,3.40
2023-05-11T18:30:16.137Z,2.00
2023-05-11T18:33:19.146Z,3.80
2023-05-11T18:36:22.060Z,2.60
2023-05-11T18:39:24.842Z,2.60
2023-05-11T18:42:27.648Z,3.70
2023-05-11T18:45:30.821Z,3.10
2023-05-11T18:48:33.817Z,2.90
2023-05-11T18:51:36.734Z,3.60
2023-05-11T18:54:39.591Z,3.00
2023-05-11T18:57:42.493Z,3.60
2023-05-11T19:00:45.676Z,3.80
2023-05-11T19:03:48.528Z,3.60
2023-05-11T19:06:51.410Z,3.60
2023-05-11T19:09:54.543Z,3.00
2023-05-11T19:12:57.550Z,2.90
2023-05-11T19:16:00.480Z,2.70
2023-05-11T19:19:03.395Z,3.90
2023-05-11T19:22:07.754Z,3.10
2023-05-11T19:25:12.073Z,2.80
2023-05-11T19:28:15.072Z,2.90
2023-05-11T19:31:17.944Z,3.40
2023-05-11T19:34:21.099Z,2.40
2023-05-11T19:37:24.411Z,2.30
2023-05-11T19:40:45.197Z,2.10
2023-05-11T19:43:48.757Z,2.10
2023-05-11T19:46:51.895Z,1.50
2023-05-11T19:49:54.819Z,2.40
2023-05-11T19:52:57.815Z,2.00
2023-05-11T19:56:00.954Z,1.80
2023-05-11T19:59:04.728Z,2.50
2023-05-11T20:02:07.755Z,2.00
2023-05-11T20:05:10.624Z,2.80
2023-05-11T20:08:13.816Z,2.30
2023-05-11T20:11:16.702Z,2.50
2023-05-11T20:14:19.872Z,2.60
2023-05-11T20:17:22.820Z,2.30
2023-05-11T20:20:25.909Z,2.30
2023-05-11T20:23:29.014Z,2.30
2023-05-11T20:26:32.060Z,1.60
2023-05-11T20:29:36.304Z,1.60
2023-05-11T20:32:39.232Z,2.20
2023-05-11T20:35:46.195Z,2.60
2023-05-11T20:38:49.452Z,2.10
2023-05-11T20:41:52.533Z,2.40
2023-05-11T20:45:19.728Z,2.40
2023-05-11T20:48:35.966Z,2.20
2023-05-11T20:51:42.492Z,3.00
2023-05-11T20:54:45.526Z,2.60
2023-05-11T20:57:51.914Z,2.40
2023-05-11T21:00:55.348Z,1.80
2023-05-11T21:03:58.338Z,2.10
2023-05-11T21:07:01.246Z,2.30
2023-05-11T21:10:04.576Z,2.40
2023-05-11T21:13:08.715Z,2.70
2023-05-11T21:16:11.796Z,2.50
2023-05-11T21:19:16.710Z,2.80
2023-05-11T21:22:19.799Z,2.70
2023-05-11T21:25:22.751Z,2.30
2023-05-11T21:28:27.122Z,2.70
2023-05-11T21:31:30.189Z,2.30
2023-05-11T21:34:33.408Z,2.90
2023-05-11T21:37:36.562Z,2.40
2023-05-11T21:40:39.379Z,2.00
2023-05-11T21:43:42.399Z,2.60
2023-05-11T21:46:46.831Z,2.80
2023-05-11T21:49:51.882Z,2.30
2023-05-11T21:52:55.031Z,3.00
2023-05-11T21:55:58.084Z,2.10
2023-05-11T21:59:03.445Z,3.20
2023-05-11T22:02:06.557Z,2.00
2023-05-11T22:05:11.078Z,2.50
2023-05-11T22:08:15.708Z,2.20
2023-05-11T22:11:19.703Z,2.60
2023-05-11T22:14:24.246Z,2.00
2023-05-11T22:17:27.221Z,2.70
2023-05-11T22:20:31.811Z,2.20
2023-05-11T22:23:34.988Z,2.70
2023-05-11T22:26:37.871Z,2.20
2023-05-11T22:29:41.128Z,2.50
2023-05-11T22:32:44.565Z,2.50
2023-05-11T22:35:48.179Z,2.50
2023-05-11T22:38:51.680Z,1.90
2023-05-11T22:41:54.785Z,2.50
2023-05-11T22:44:59.170Z,2.40
2023-05-11T22:48:02.685Z,3.00
2023-05-11T22:51:06.828Z,2.20
2023-05-11T22:54:10.490Z,3.20
2023-05-11T22:57:16.507Z,2.30
2023-05-11T23:00:20.691Z,2.80
2023-05-11T23:03:24.275Z,2.90
2023-05-11T23:06:27.435Z,3.10
2023-05-11T23:09:30.547Z,3.20
2023-05-11T23:12:33.663Z,2.90
2023-05-11T23:15:36.855Z,2.70
2023-05-11T23:18:40.669Z,2.80
2023-05-11T23:21:43.903Z,3.80
2023-05-11T23:24:46.838Z,3.70
2023-05-11T23:27:50.378Z,2.80
2023-05-11T23:30:53.607Z,3.30
2023-05-11T23:33:56.923Z,2.60
2023-05-11T23:37:00.581Z,2.60
2023-05-11T23:40:04.403Z,2.50
2023-05-11T23:43:07.636Z,2.70
2023-05-11T23:46:10.495Z,2.90
2023-05-11T23:49:13.255Z,3.30
2023-05-11T23:52:16.091Z,3.10
2023-05-11T23:55:19.000Z,3.00
2023-05-11T23:58:22.102Z,3.20
